Time;durP1;ratioP1;P1;durP2;ratioP2;P2;SDS_P1;SDS_P2;PMS_P1;PMS_P2;Temp;Humidity;BMP_temperature;BMP_pressure;BME280_temperature;BME280_humidity;BME280_pressure;Samples;Min_cycle;Max_cycle;Signal;HPM_P1;HPM_P2
2022/05/10 00:00:21;;;;;;;9.07;5.18;;;15.90;71.70;;;;;;5115011;28;20447;-52
2022/05/10 00:02:50;;;;;;;9.85;5.32;;;15.90;71.70;;;;;;5114834;28;20027;-39
2022/05/10 00:05:17;;;;;;;10.60;5.40;;;16.00;71.70;;;;;;5114870;28;20479;-47
2022/05/10 00:07:43;;;;;;;9.85;5.60;;;16.00;71.20;;;;;;5114933;27;20111;-55
2022/05/10 00:10:10;;;;;;;8.00;5.15;;;16.10;71.50;;;;;;5094608;28;20063;-42
2022/05/10 00:12:36;;;;;;;8.90;4.97;;;16.00;71.30;;;;;;5094424;28;20031;-60
2022/05/10 00:15:02;;;;;;;9.77;4.80;;;16.10;70.90;;;;;;5094459;28;20035;-54
2022/05/10 00:17:34;;;;;;;8.65;5.22;;;16.10;70.80;;;;;;5094029;28;20036;-42
2022/05/10 00:19:59;;;;;;;8.32;4.80;;;16.10;71.40;;;;;;5111158;28;20479;-56
2022/05/10 00:22:25;;;;;;;8.55;4.55;;;16.20;71.10;;;;;;5114573;28;20020;-55
2022/05/10 00:24:51;;;;;;;10.00;4.72;;;16.20;71.60;;;;;;5114621;28;20046;-51
2022/05/10 00:27:17;;;;;;;9.38;5.60;;;16.20;71.50;;;;;;5114631;28;20425;-40
2022/05/10 00:29:43;;;;;;;7.45;4.97;;;16.10;70.70;;;;;;5098416;28;20024;-42
2022/05/10 00:32:09;;;;;;;8.13;4.85;;;16.10;72.40;;;;;;5093889;28;20036;-47
2022/05/10 00:34:35;;;;;;;8.40;5.30;;;16.10;73.70;;;;;;5093932;28;20085;-58
2022/05/10 00:37:01;;;;;;;9.68;4.93;;;16.10;71.60;;;;;;5093927;28;20495;-60
2022/05/10 00:39:27;;;;;;;9.63;4.75;;;16.10;72.00;;;;;;5107030;28;20492;-55
2022/05/10 00:42:07;;;;;;;9.35;4.70;;;16.10;73.60;;;;;;5114107;27;20016;-55
2022/05/10 00:44:38;;;;;;;10.63;5.13;;;16.10;72.70;;;;;;5114057;28;20062;-54
2022/05/10 00:47:13;;;;;;;9.98;5.15;;;16.10;72.90;;;;;;5113779;28;20023;-56
2022/05/10 00:50:11;;;;;;;10.48;5.47;;;16.10;72.70;;;;;;5096406;28;20452;-61
2022/05/10 00:52:48;;;;;;;9.05;4.78;;;16.10;72.30;;;;;;5093615;28;20030;-52
2022/05/10 00:55:26;;;;;;;10.90;5.38;;;16.10;71.30;;;;;;5093593;28;20024;-57
2022/05/10 00:58:03;;;;;;;8.80;4.95;;;16.20;71.60;;;;;;5095469;28;20444;-54
2022/05/10 01:00:31;;;;;;;9.80;5.10;;;16.20;71.40;;;;;;5114004;28;20023;-58
2022/05/10 01:03:28;;;;;;;9.05;5.15;;;16.20;73.40;;;;;;5112477;28;20027;-53
2022/05/10 01:06:16;;;;;;;8.73;4.50;;;16.20;73.20;;;;;;5113943;28;20023;-56
2022/05/10 01:09:02;;;;;;;9.43;5.13;;;16.20;73.50;;;;;;5104713;28;20024;-57
2022/05/10 01:11:57;;;;;;;8.05;4.68;;;16.10;72.80;;;;;;5093343;28;20096;-55
2022/05/10 01:14:25;;;;;;;8.27;5.07;;;16.10;74.70;;;;;;5091884;28;20062;-56
2022/05/10 01:16:51;;;;;;;12.10;5.60;;;16.10;74.40;;;;;;5073015;28;20020;-50
2022/05/10 01:19:17;;;;;;;9.82;5.53;;;16.10;74.40;;;;;;5072879;28;20764;-44
2022/05/10 01:22:04;;;;;;;13.05;5.80;;;16.10;74.30;;;;;;5110980;28;20035;-60
2022/05/10 01:24:38;;;;;;;11.73;5.82;;;16.10;74.60;;;;;;5112844;28;20494;-51
2022/05/10 01:27:30;;;;;;;12.48;6.10;;;16.20;74.90;;;;;;5092958;28;20549;-60
2022/05/10 01:29:59;;;;;;;16.00;6.35;;;16.10;75.70;;;;;;5095328;28;20019;-53
2022/05/10 01:35:26;;;;;;;14.73;6.43;;;16.10;76.20;;;;;;5105334;28;20393;-41
2022/05/10 01:37:55;;;;;;;;;;;16.10;76.60;;;;;;5093369;28;20063;-57
2022/05/10 01:40:37;;;;;;;14.82;6.22;;;16.00;76.90;;;;;;5100825;28;20352;-53
2022/05/10 01:43:14;;;;;;;12.57;7.28;;;16.00;77.50;;;;;;5113090;28;20047;-45
2022/05/10 01:45:52;;;;;;;13.82;7.03;;;16.00;77.20;;;;;;5113074;28;20527;-53
2022/05/10 01:48:20;;;;;;;12.48;7.25;;;16.00;77.70;;;;;;5112941;28;20036;-57
2022/05/10 01:51:02;;;;;;;15.52;7.78;;;16.00;77.70;;;;;;5104703;28;20021;-45
2022/05/10 01:53:38;;;;;;;13.75;7.43;;;15.90;78.30;;;;;;5092345;28;20492;-48
2022/05/10 01:56:13;;;;;;;16.10;8.00;;;15.90;78.90;;;;;;5092486;28;20028;-53
2022/05/10 01:58:41;;;;;;;17.48;8.18;;;15.90;79.30;;;;;;5091726;28;20394;-55
2022/05/10 02:01:24;;;;;;;11.38;7.78;;;15.70;79.30;;;;;;5101889;28;20024;-58
2022/05/10 02:04:14;;;;;;;11.55;7.45;;;15.70;79.40;;;;;;5111454;28;20552;-52
2022/05/10 02:06:45;;;;;;;15.10;8.25;;;15.70;80.00;;;;;;5112526;28;20472;-47
2022/05/10 02:09:19;;;;;;;14.15;8.07;;;15.70;79.80;;;;;;5112666;28;20027;-52
2022/05/10 02:12:05;;;;;;;14.02;7.97;;;15.60;80.60;;;;;;5097096;28;20054;-45
2022/05/10 02:14:55;;;;;;;14.95;9.02;;;15.60;80.80;;;;;;5091915;28;20047;-41
2022/05/10 02:17:53;;;;;;;19.60;9.30;;;15.50;81.10;;;;;;5092143;28;20016;-52
2022/05/10 02:20:34;;;;;;;14.60;8.43;;;15.50;82.00;;;;;;5091438;28;20042;-40
2022/05/10 02:23:19;;;;;;;16.45;8.48;;;15.40;82.50;;;;;;5112221;28;20027;-42
2022/05/10 02:26:10;;;;;;;16.40;8.10;;;15.40;82.20;;;;;;5104413;28;20036;-41
2022/05/10 02:29:14;;;;;;;15.80;9.40;;;15.40;83.30;;;;;;5112064;28;20054;-44
2022/05/10 02:34:35;;;;;;;14.88;8.18;;;15.30;83.30;;;;;;5091628;28;20047;-39
2022/05/10 02:37:01;;;;;;;14.27;8.50;;;15.30;83.70;;;;;;5091669;28;20020;-48
2022/05/10 02:39:27;;;;;;;15.77;8.63;;;15.30;83.90;;;;;;5091500;28;20050;-47
2022/05/10 02:41:53;;;;;;;14.52;9.15;;;15.30;83.20;;;;;;5106598;28;20387;-51
2022/05/10 02:44:19;;;;;;;14.23;8.60;;;15.30;83.80;;;;;;5110269;28;20035;-52
2022/05/10 02:46:45;;;;;;;12.77;7.90;;;15.20;83.90;;;;;;5080413;28;20033;-57
2022/05/10 02:49:10;;;;;;;11.63;7.88;;;15.20;84.40;;;;;;5071184;28;20032;-43
2022/05/10 02:51:36;;;;;;;17.10;8.43;;;15.20;84.90;;;;;;5096701;28;20173;-58
2022/05/10 02:54:02;;;;;;;15.80;8.52;;;15.10;84.60;;;;;;5111560;28;20130;-54
2022/05/10 02:56:29;;;;;;;14.73;9.60;;;15.10;84.40;;;;;;5111761;28;20023;-58
2022/05/10 02:59:15;;;;;;;18.10;8.63;;;15.20;83.20;;;;;;5111756;28;20514;-51
2022/05/10 03:02:08;;;;;;;15.45;9.88;;;15.20;82.30;;;;;;5109797;28;20019;-50
2022/05/10 03:04:41;;;;;;;15.40;9.00;;;15.30;81.70;;;;;;5111654;28;20020;-59
2022/05/10 03:07:08;;;;;;;15.65;9.25;;;15.30;81.70;;;;;;5110278;28;20384;-52
2022/05/10 03:09:33;;;;;;;14.40;9.60;;;15.30;81.40;;;;;;5111643;28;20413;-52
2022/05/10 03:12:02;;;;;;;13.50;9.73;;;15.30;81.80;;;;;;5095865;28;20428;-45
2022/05/10 03:14:27;;;;;;;15.57;9.73;;;15.30;80.90;;;;;;5091020;28;20089;-59
2022/05/10 03:16:53;;;;;;;16.40;9.73;;;15.40;81.00;;;;;;5089874;28;20024;-53
2022/05/10 03:19:19;;;;;;;16.55;9.25;;;15.40;80.70;;;;;;5091088;28;20121;-55
2022/05/10 03:21:44;;;;;;;16.38;9.73;;;15.40;80.40;;;;;;5103913;28;20524;-58
2022/05/10 03:24:10;;;;;;;17.17;9.90;;;15.40;80.50;;;;;;5111259;28;20110;-41
2022/05/10 03:26:36;;;;;;;17.65;9.77;;;15.40;81.20;;;;;;5111525;28;20102;-58
2022/05/10 03:29:03;;;;;;;17.25;9.18;;;15.40;81.80;;;;;;5111434;28;20494;-49
2022/05/10 03:31:29;;;;;;;19.10;8.82;;;15.30;81.40;;;;;;5100336;28;20020;-57
2022/05/10 03:36:47;;;;;;;11.50;6.47;;;15.20;78.60;;;;;;5074574;28;20467;-57
2022/05/10 03:39:13;;;;;;;10.32;6.15;;;15.20;78.80;;;;;;5090985;28;20103;-58
2022/05/10 03:41:39;;;;;;;13.57;7.30;;;15.20;77.40;;;;;;5101391;28;20024;-55
2022/05/10 03:44:04;;;;;;;11.00;6.88;;;15.20;77.00;;;;;;5110958;28;20390;-47
2022/05/10 03:46:30;;;;;;;13.73;6.88;;;15.20;77.00;;;;;;5111219;28;20023;-52
2022/05/10 03:48:56;;;;;;;12.65;6.85;;;15.20;77.90;;;;;;5111296;28;20101;-48
2022/05/10 03:51:23;;;;;;;11.38;6.38;;;15.20;76.70;;;;;;5101723;28;20031;-50
2022/05/10 03:53:49;;;;;;;10.85;6.18;;;15.10;76.10;;;;;;5090865;28;20036;-59
2022/05/10 03:56:14;;;;;;;13.48;6.80;;;15.10;75.70;;;;;;5090737;28;20024;-57
2022/05/10 03:58:40;;;;;;;12.15;7.03;;;15.10;75.30;;;;;;5090741;28;20020;-57
2022/05/10 04:01:09;;;;;;;12.52;7.70;;;15.00;75.60;;;;;;5097359;28;20020;-48
2022/05/10 04:03:35;;;;;;;10.90;7.60;;;15.00;76.30;;;;;;5110974;28;20106;-42
2022/05/10 04:06:01;;;;;;;12.95;7.03;;;14.90;76.90;;;;;;5111129;28;20031;-57
2022/05/10 04:08:27;;;;;;;13.57;7.78;;;14.90;77.50;;;;;;5111041;28;20102;-52
2022/05/10 04:10:53;;;;;;;13.23;8.57;;;14.80;77.80;;;;;;5106299;28;20035;-51
2022/05/10 04:13:19;;;;;;;12.57;8.82;;;14.80;78.00;;;;;;5090831;28;20039;-55
2022/05/10 04:15:45;;;;;;;12.90;9.20;;;14.70;78.50;;;;;;5090646;28;20020;-57
2022/05/10 04:18:10;;;;;;;17.42;9.63;;;14.70;79.10;;;;;;5090623;28;20039;-54
2022/05/10 04:20:36;;;;;;;15.05;10.27;;;14.70;79.80;;;;;;5092438;28;20430;-57
2022/05/10 04:23:03;;;;;;;16.63;11.15;;;14.60;80.30;;;;;;5114389;28;20032;-48
2022/05/10 04:25:28;;;;;;;18.80;11.38;;;14.50;80.60;;;;;;5114490;28;20020;-56
2022/05/10 04:27:55;;;;;;;17.42;11.55;;;14.60;81.70;;;;;;5114573;28;20407;-52
2022/05/10 04:30:22;;;;;;;18.15;11.32;;;14.50;82.10;;;;;;5114271;28;20392;-49
2022/05/10 04:32:49;;;;;;;19.13;12.35;;;14.50;83.10;;;;;;5113693;28;20572;-51
2022/05/10 04:35:15;;;;;;;21.45;12.90;;;14.50;83.40;;;;;;5114304;28;20408;-55
2022/05/10 04:37:41;;;;;;;17.15;12.13;;;14.50;84.00;;;;;;5114382;28;20065;-54
2022/05/10 04:42:52;;;;;;;26.40;15.43;;;14.50;86.10;;;;;;5073914;28;20071;-48
2022/05/10 04:45:19;;;;;;;26.30;17.77;;;14.40;85.80;;;;;;5073631;28;20056;-59
2022/05/10 04:47:45;;;;;;;26.55;17.10;;;14.40;86.10;;;;;;5085870;28;20020;-55
2022/05/10 04:50:11;;;;;;;25.65;17.63;;;14.30;86.50;;;;;;5093722;28;20088;-58
2022/05/10 04:52:38;;;;;;;27.00;18.50;;;14.30;86.90;;;;;;5111937;28;20072;-56
2022/05/10 04:55:04;;;;;;;29.73;19.95;;;14.20;87.80;;;;;;5114256;28;20047;-51
2022/05/10 04:57:30;;;;;;;28.55;20.23;;;14.30;88.60;;;;;;5114180;27;20026;-56
2022/05/10 04:59:56;;;;;;;33.60;20.13;;;14.20;89.40;;;;;;5113922;28;20032;-52
2022/05/10 05:02:22;;;;;;;32.00;21.63;;;14.20;89.80;;;;;;5097465;28;20073;-54
2022/05/10 05:04:47;;;;;;;32.60;20.55;;;14.20;90.10;;;;;;5093150;28;20473;-53
2022/05/10 05:07:13;;;;;;;28.83;19.90;;;14.20;90.20;;;;;;5093065;28;20492;-57
2022/05/10 05:09:39;;;;;;;29.70;20.05;;;14.10;90.50;;;;;;5093305;28;20028;-49
2022/05/10 05:12:04;;;;;;;33.42;20.35;;;14.10;90.50;;;;;;5106571;28;20385;-57
2022/05/10 05:14:31;;;;;;;32.80;20.33;;;14.10;90.80;;;;;;5113343;28;20553;-55
2022/05/10 05:16:59;;;;;;;29.63;20.17;;;14.10;91.00;;;;;;5095633;28;20078;-46
2022/05/10 05:19:25;;;;;;;29.15;20.38;;;14.10;91.10;;;;;;5074920;28;20097;-53
2022/05/10 05:21:58;;;;;;;30.05;20.52;;;14.10;91.00;;;;;;5087396;28;20412;-49
2022/05/10 05:24:24;;;;;;;34.40;20.75;;;14.20;91.10;;;;;;5085342;28;20100;-49
2022/05/10 05:26:52;;;;;;;33.78;21.85;;;14.20;91.00;;;;;;5092259;28;20095;-58
2022/05/10 05:29:18;;;;;;;31.23;20.15;;;14.20;90.90;;;;;;5087976;28;20028;-59
2022/05/10 05:31:44;;;;;;;30.42;21.05;;;14.20;91.20;;;;;;5092521;28;20545;-41
2022/05/10 05:34:10;;;;;;;28.80;21.20;;;14.20;90.80;;;;;;5085007;28;20044;-37
2022/05/10 05:36:36;;;;;;;28.23;20.77;;;14.20;90.80;;;;;;5080419;28;20036;-38
2022/05/10 05:39:02;;;;;;;31.92;20.13;;;14.20;90.80;;;;;;5084582;28;20107;-55
2022/05/10 05:41:27;;;;;;;27.38;19.05;;;14.20;90.90;;;;;;5092511;28;20107;-52
2022/05/10 05:43:53;;;;;;;28.33;19.90;;;14.20;90.80;;;;;;5074926;28;20032;-53
2022/05/10 05:46:19;;;;;;;29.25;19.95;;;14.20;90.60;;;;;;5081685;28;20028;-54
2022/05/10 05:48:44;;;;;;;27.75;19.30;;;14.30;90.70;;;;;;5090722;28;20138;-54
2022/05/10 05:51:10;;;;;;;29.10;18.77;;;14.30;90.80;;;;;;5085622;28;20040;-50
2022/05/10 05:53:36;;;;;;;24.48;16.13;;;14.40;90.40;;;;;;5091583;28;20419;-57
2022/05/10 05:56:03;;;;;;;28.10;16.85;;;14.60;90.30;;;;;;5092153;28;20020;-40
2022/05/10 05:58:30;;;;;;;23.10;15.18;;;14.90;89.30;;;;;;5091697;28;20484;-54
2022/05/10 06:00:55;;;;;;;21.33;14.70;;;15.10;87.80;;;;;;5089567;28;20024;-54
2022/05/10 06:03:21;;;;;;;22.55;15.18;;;15.40;87.40;;;;;;5091675;28;20031;-50
2022/05/10 06:05:49;;;;;;;22.73;14.80;;;15.60;86.60;;;;;;5091718;28;20077;-50
2022/05/10 06:08:16;;;;;;;20.13;13.63;;;15.60;84.30;;;;;;5091129;28;20039;-52
2022/05/10 06:10:42;;;;;;;19.55;13.15;;;15.60;84.80;;;;;;5090342;28;20024;-44
2022/05/10 06:13:09;;;;;;;23.63;15.02;;;15.60;85.50;;;;;;5090325;28;20497;-46
2022/05/10 06:15:36;;;;;;;19.52;12.68;;;15.50;85.40;;;;;;5090683;28;20036;-44
2022/05/10 06:18:04;;;;;;;21.77;13.65;;;15.50;86.40;;;;;;5091077;28;20024;-51
2022/05/10 06:20:30;;;;;;;19.15;12.70;;;15.60;85.90;;;;;;5091434;28;20071;-48
2022/05/10 06:22:56;;;;;;;18.83;12.20;;;15.60;87.70;;;;;;5091434;28;20069;-54
2022/05/10 06:25:23;;;;;;;18.63;12.35;;;15.80;84.90;;;;;;5092043;28;20036;-55
2022/05/10 06:27:52;;;;;;;17.23;12.00;;;16.00;86.00;;;;;;5091693;28;20061;-54
2022/05/10 06:30:20;;;;;;;17.33;11.77;;;16.10;84.10;;;;;;5091772;28;20099;-52
2022/05/10 06:32:46;;;;;;;18.20;11.35;;;16.10;83.90;;;;;;5091520;28;20040;-55
2022/05/10 06:35:12;;;;;;;17.63;11.10;;;16.10;83.40;;;;;;5091707;28;20404;-58
2022/05/10 06:40:22;;;;;;;17.33;10.85;;;16.10;83.90;;;;;;5091645;28;20442;-55
2022/05/10 06:42:48;;;;;;;20.42;11.43;;;16.00;84.20;;;;;;5091760;28;20102;-53
2022/05/10 06:45:16;;;;;;;17.70;10.95;;;16.00;83.80;;;;;;5091255;28;20027;-57
2022/05/10 06:47:46;;;;;;;16.40;10.45;;;16.00;85.40;;;;;;5090299;28;20871;-56
2022/05/10 06:50:13;;;;;;;13.80;10.48;;;16.00;85.00;;;;;;5091580;28;20602;-54
2022/05/10 06:52:40;;;;;;;17.67;10.57;;;16.00;84.60;;;;;;5091418;28;20392;-50
2022/05/10 06:55:07;;;;;;;18.52;12.00;;;15.90;85.30;;;;;;5091482;28;20047;-57
2022/05/10 06:57:33;;;;;;;19.48;11.20;;;16.00;85.60;;;;;;5091362;28;20488;-48
2022/05/10 06:59:58;;;;;;;17.30;10.60;;;16.00;85.60;;;;;;5090434;28;20020;-54
2022/05/10 07:02:24;;;;;;;20.45;12.20;;;16.20;84.50;;;;;;5091048;28;20074;-44
2022/05/10 07:04:51;;;;;;;21.90;11.65;;;16.20;83.90;;;;;;5091002;28;20551;-54
2022/05/10 07:07:17;;;;;;;18.25;11.30;;;16.20;84.50;;;;;;5091116;28;20028;-50
2022/05/10 07:09:44;;;;;;;20.08;12.23;;;16.10;84.00;;;;;;5091254;28;20518;-54
2022/05/10 07:12:10;;;;;;;15.48;11.23;;;16.00;84.30;;;;;;5091103;28;20028;-48
2022/05/10 07:14:36;;;;;;;21.25;12.00;;;16.00;84.80;;;;;;5091183;28;20384;-53
2022/05/10 07:17:01;;;;;;;19.63;12.48;;;16.00;85.80;;;;;;5090987;28;20084;-52
2022/05/10 07:19:27;;;;;;;21.00;12.20;;;16.00;86.70;;;;;;5091047;28;20035;-40
2022/05/10 07:21:52;;;;;;;19.40;12.05;;;15.90;85.80;;;;;;5091086;28;20028;-51
2022/05/10 07:24:19;;;;;;;23.55;11.85;;;16.00;86.40;;;;;;5089878;28;20036;-49
2022/05/10 07:26:48;;;;;;;17.42;10.63;;;15.90;87.20;;;;;;5091165;28;20043;-50
2022/05/10 07:29:16;;;;;;;23.75;10.65;;;16.00;86.50;;;;;;5089701;28;20035;-48
2022/05/10 07:31:42;;;;;;;16.02;10.02;;;16.10;86.20;;;;;;5090597;28;20029;-51
2022/05/10 07:34:08;;;;;;;17.20;9.48;;;16.10;86.10;;;;;;5090646;28;20060;-52
2022/05/10 07:36:35;;;;;;;20.65;10.73;;;16.20;85.60;;;;;;5090967;28;20021;-49
2022/05/10 07:39:03;;;;;;;18.23;9.90;;;16.30;84.90;;;;;;5090159;28;20502;-53
2022/05/10 07:41:29;;;;;;;15.82;9.77;;;16.40;86.10;;;;;;5090287;28;20028;-56
2022/05/10 07:43:56;;;;;;;14.90;8.40;;;16.40;84.70;;;;;;5090237;28;20024;-40
2022/05/10 07:46:22;;;;;;;17.60;9.82;;;16.40;85.20;;;;;;5089310;28;20027;-44
2022/05/10 07:48:48;;;;;;;14.02;9.25;;;16.50;83.50;;;;;;5091053;28;20027;-53
2022/05/10 07:51:14;;;;;;;16.38;9.52;;;16.40;84.30;;;;;;5090924;28;20560;-46
2022/05/10 07:53:41;;;;;;;20.23;10.95;;;16.30;83.20;;;;;;5090785;28;20444;-45
2022/05/10 07:56:06;;;;;;;17.33;10.05;;;16.30;84.30;;;;;;5091927;28;20050;-47
2022/05/10 07:58:33;;;;;;;18.33;9.90;;;16.20;84.80;;;;;;5094965;28;20392;-51
2022/05/10 08:00:59;;;;;;;19.50;10.02;;;16.30;84.20;;;;;;5095027;28;20028;-48
2022/05/10 08:03:26;;;;;;;16.98;9.43;;;16.30;84.90;;;;;;5094947;28;20039;-42
2022/05/10 08:05:56;;;;;;;15.27;10.25;;;16.30;86.30;;;;;;5094722;28;20477;-54
2022/05/10 08:08:24;;;;;;;17.35;11.07;;;16.20;84.60;;;;;;5094463;28;20035;-51
2022/05/10 08:10:50;;;;;;;19.17;10.48;;;16.00;84.30;;;;;;5093970;28;20020;-56
2022/05/10 08:13:19;;;;;;;17.55;9.75;;;16.00;86.10;;;;;;5093638;28;20032;-55
2022/05/10 08:15:45;;;;;;;14.32;9.48;;;16.10;86.90;;;;;;5093962;28;20020;-54
2022/05/10 08:18:12;;;;;;;16.45;9.15;;;16.10;85.50;;;;;;5094069;28;20532;-46
2022/05/10 08:20:39;;;;;;;16.23;8.90;;;16.10;86.50;;;;;;5094149;28;20055;-52
2022/05/10 08:23:06;;;;;;;14.88;8.90;;;16.30;86.60;;;;;;5094051;28;20380;-47
2022/05/10 08:25:32;;;;;;;14.43;7.65;;;16.20;84.20;;;;;;5094091;28;20044;-48
2022/05/10 08:27:58;;;;;;;15.90;7.35;;;16.40;84.70;;;;;;5094345;28;20016;-55
2022/05/10 08:30:24;;;;;;;15.60;7.57;;;16.70;83.90;;;;;;5094311;28;20032;-52
2022/05/10 08:32:51;;;;;;;14.18;7.82;;;16.80;83.10;;;;;;5092231;28;20717;-60
2022/05/10 08:35:17;;;;;;;13.20;7.25;;;16.90;82.40;;;;;;5091897;28;20059;-60
2022/05/10 08:37:43;;;;;;;15.10;8.38;;;16.90;81.70;;;;;;5093704;28;20103;-49
2022/05/10 08:40:21;;;;;;;16.92;9.05;;;16.80;82.00;;;;;;5092249;28;20119;-54
2022/05/10 08:42:51;;;;;;;16.33;9.18;;;16.60;82.80;;;;;;5090937;28;20111;-56
2022/05/10 08:45:18;;;;;;;17.05;9.35;;;16.40;84.00;;;;;;5092389;28;20377;-52
2022/05/10 08:47:46;;;;;;;17.75;10.07;;;16.20;84.50;;;;;;5093703;28;20026;-47
2022/05/10 08:50:13;;;;;;;19.85;10.23;;;16.10;85.50;;;;;;5093530;28;20069;-58
2022/05/10 08:52:43;;;;;;;17.25;10.88;;;16.00;86.50;;;;;;5093719;28;20066;-54
2022/05/10 08:55:09;;;;;;;17.35;11.13;;;15.90;86.30;;;;;;5093675;28;20119;-60
2022/05/10 08:58:00;;;;;;;16.40;10.73;;;15.80;86.60;;;;;;5093424;28;20016;-57
2022/05/10 09:00:57;;;;;;;17.50;11.45;;;15.60;87.10;;;;;;5074182;28;20055;-54
2022/05/10 09:03:36;;;;;;;19.45;10.90;;;15.60;88.30;;;;;;5072712;28;20032;-43
2022/05/10 09:06:20;;;;;;;17.05;11.73;;;15.50;87.90;;;;;;5073225;28;20017;-55
2022/05/10 09:09:16;;;;;;;19.65;10.98;;;15.50;88.00;;;;;;5072912;28;20043;-48
2022/05/10 09:12:15;;;;;;;18.90;11.20;;;15.50;88.50;;;;;;5073165;28;20047;-50
2022/05/10 09:15:01;;;;;;;17.48;10.48;;;15.60;89.00;;;;;;5073012;28;20040;-53
2022/05/10 09:17:29;;;;;;;15.90;10.05;;;15.60;88.50;;;;;;5072981;28;20032;-59
2022/05/10 09:19:55;;;;;;;17.58;11.13;;;15.80;89.00;;;;;;5072921;28;20038;-49
2022/05/10 09:22:45;;;;;;;18.23;10.05;;;16.00;88.20;;;;;;5072802;28;20032;-50
2022/05/10 09:25:29;;;;;;;;;;;16.10;88.00;;;;;;5073227;28;20032;-58
2022/05/10 09:27:55;;;;;;;19.30;10.40;;;16.20;86.50;;;;;;5072996;28;19911;-52
2022/05/10 09:30:34;;;;;;;19.73;9.65;;;16.20;85.90;;;;;;5072787;28;20103;-51
2022/05/10 09:36:10;;;;;;;16.88;10.15;;;16.10;86.30;;;;;;5092780;28;20149;-52
2022/05/10 09:38:47;;;;;;;17.63;9.63;;;16.20;86.50;;;;;;5092427;28;20016;-59
2022/05/10 09:41:39;;;;;;;15.77;8.52;;;16.50;86.30;;;;;;5092859;28;20039;-54
2022/05/10 09:44:24;;;;;;;13.60;6.85;;;16.80;83.30;;;;;;5091182;28;20380;-48
2022/05/10 09:47:08;;;;;;;13.18;6.25;;;17.10;83.10;;;;;;5092975;28;20445;-53
2022/05/10 09:49:37;;;;;;;11.50;6.80;;;17.50;84.20;;;;;;5092530;28;20024;-52
2022/05/10 09:52:05;;;;;;;15.48;6.78;;;17.60;79.20;;;;;;5092511;28;20032;-61
2022/05/10 09:54:37;;;;;;;13.07;7.07;;;17.60;81.10;;;;;;5092108;28;20081;-52
2022/05/10 09:57:04;;;;;;;14.32;6.90;;;17.50;81.30;;;;;;5091974;28;20059;-47
2022/05/10 09:59:39;;;;;;;14.77;7.20;;;17.40;82.00;;;;;;5092130;28;20031;-53
2022/05/10 10:02:06;;;;;;;9.15;6.25;;;17.50;80.80;;;;;;5090847;28;20089;-51
2022/05/10 10:04:35;;;;;;;12.23;6.28;;;17.40;80.60;;;;;;5091789;28;20093;-37
2022/05/10 10:07:06;;;;;;;11.40;7.10;;;17.00;80.20;;;;;;5091936;28;20070;-53
2022/05/10 10:09:35;;;;;;;13.55;7.30;;;16.90;82.40;;;;;;5091423;28;20039;-47
2022/05/10 10:12:01;;;;;;;14.63;7.93;;;16.80;84.00;;;;;;5091727;28;20085;-55
2022/05/10 10:14:47;;;;;;;15.68;7.95;;;16.80;82.80;;;;;;5090268;28;20032;-57
2022/05/10 10:17:34;;;;;;;14.85;7.70;;;16.80;82.90;;;;;;5091582;28;20032;-54
2022/05/10 10:20:19;;;;;;;14.82;8.70;;;16.80;83.10;;;;;;5090708;28;20024;-54
2022/05/10 10:22:49;;;;;;;19.77;8.18;;;16.90;83.40;;;;;;5087398;28;20028;-53
2022/05/10 10:25:23;;;;;;;15.00;8.77;;;16.80;83.90;;;;;;5085610;28;20024;-49
2022/05/10 10:28:05;;;;;;;16.38;8.93;;;16.60;83.40;;;;;;5091363;28;20020;-54
2022/05/10 10:30:43;;;;;;;16.13;8.93;;;16.60;84.00;;;;;;5091505;28;20028;-42
2022/05/10 10:33:44;;;;;;;22.17;9.48;;;16.40;85.60;;;;;;5073019;28;20609;-48
2022/05/10 10:36:22;;;;;;;19.40;10.02;;;16.30;85.50;;;;;;5070845;28;20055;-38
2022/05/10 10:39:20;;;;;;;17.57;8.60;;;16.30;86.60;;;;;;5071181;28;20017;-50
2022/05/10 10:42:01;;;;;;;17.23;9.02;;;16.30;86.70;;;;;;5048348;28;20040;-54
2022/05/10 10:44:29;;;;;;;17.90;10.38;;;16.50;86.00;;;;;;5071283;28;20384;-46
2022/05/10 10:47:06;;;;;;;19.30;10.18;;;16.60;85.50;;;;;;5074049;28;20050;-54
2022/05/10 10:50:08;;;;;;;24.30;10.55;;;16.60;85.30;;;;;;5091180;28;20024;-58
2022/05/10 10:52:33;;;;;;;20.10;10.13;;;16.60;85.50;;;;;;5090969;28;20027;-57
2022/05/10 10:55:00;;;;;;;16.17;10.70;;;16.50;84.80;;;;;;5090660;28;20104;-49
2022/05/10 10:58:01;;;;;;;19.42;9.63;;;16.40;85.70;;;;;;5091355;28;20083;-42
2022/05/10 11:01:00;;;;;;;20.13;10.15;;;16.40;86.50;;;;;;5091325;28;20026;-53
2022/05/10 11:03:41;;;;;;;18.77;9.60;;;16.50;85.90;;;;;;5082642;28;20032;-49
2022/05/10 11:06:19;;;;;;;19.02;11.23;;;16.50;85.80;;;;;;5091523;28;20153;-54
2022/05/10 11:09:02;;;;;;;21.13;11.07;;;16.30;85.50;;;;;;5091117;28;20036;-59
2022/05/10 11:11:34;;;;;;;20.95;11.75;;;16.20;86.60;;;;;;5090735;28;20117;-40
2022/05/10 11:14:19;;;;;;;23.92;11.13;;;16.10;87.80;;;;;;5091123;28;20028;-54
2022/05/10 11:17:12;;;;;;;20.02;9.98;;;15.90;87.60;;;;;;5091177;28;20036;-54
2022/05/10 11:20:15;;;;;;;19.65;9.88;;;15.80;87.90;;;;;;5091298;28;20028;-52
2022/05/10 11:23:10;;;;;;;17.08;10.18;;;15.80;89.30;;;;;;5091212;28;20028;-41
2022/05/10 11:26:17;;;;;;;20.02;10.25;;;15.80;90.00;;;;;;5075323;28;20036;-53
2022/05/10 11:28:46;;;;;;;17.90;9.82;;;16.00;90.20;;;;;;5078615;28;20046;-57
2022/05/10 11:31:23;;;;;;;17.37;9.57;;;16.20;89.80;;;;;;5092346;28;20020;-48
2022/05/10 11:34:12;;;;;;;15.82;8.88;;;16.30;89.80;;;;;;5093825;28;20115;-51
2022/05/10 11:36:46;;;;;;;16.73;9.23;;;16.30;88.40;;;;;;5095254;28;20032;-52
2022/05/10 11:39:34;;;;;;;14.60;7.68;;;16.30;89.10;;;;;;5095245;28;20450;-55
2022/05/10 11:42:15;;;;;;;16.00;8.15;;;16.30;88.90;;;;;;5093617;28;20027;-58
2022/05/10 11:44:46;;;;;;;15.75;7.82;;;16.20;88.00;;;;;;5093772;28;20024;-53
2022/05/10 11:47:51;;;;;;;16.92;9.07;;;16.20;89.30;;;;;;5084748;28;20024;-57
2022/05/10 11:50:26;;;;;;;15.70;8.57;;;16.10;88.30;;;;;;5094860;28;20027;-43
2022/05/10 11:53:11;;;;;;;17.45;9.27;;;16.00;89.20;;;;;;5094867;28;20099;-55
2022/05/10 11:55:47;;;;;;;16.70;9.10;;;15.90;89.60;;;;;;5094775;28;20070;-54
2022/05/10 11:58:13;;;;;;;16.83;9.48;;;15.90;89.70;;;;;;5094692;28;20523;-41
2022/05/10 12:00:56;;;;;;;19.05;9.07;;;15.80;90.50;;;;;;5094550;28;20028;-51
2022/05/10 12:03:40;;;;;;;16.65;10.23;;;15.70;90.00;;;;;;5094623;28;20035;-44
2022/05/10 12:06:24;;;;;;;17.77;10.13;;;15.70;90.40;;;;;;5094532;28;20514;-50
2022/05/10 12:08:52;;;;;;;15.77;9.98;;;15.70;90.50;;;;;;5086354;28;20020;-53
2022/05/10 12:11:37;;;;;;;20.60;10.10;;;15.70;90.50;;;;;;5079313;28;20047;-56
2022/05/10 12:22:53;;;;;;;14.80;9.10;;;16.00;89.60;;;;;;5093271;28;20535;-54
2022/05/10 12:25:42;;;;;;;18.08;10.70;;;16.00;89.90;;;;;;5092438;28;20032;-57
2022/05/10 12:28:07;;;;;;;16.75;9.98;;;16.00;89.60;;;;;;5092516;28;20016;-58
2022/05/10 12:30:35;;;;;;;23.17;10.73;;;15.90;89.90;;;;;;5092340;28;20074;-48
2022/05/10 12:33:35;;;;;;;18.90;11.05;;;15.80;90.10;;;;;;5090359;28;20040;-55
2022/05/10 12:36:09;;;;;;;18.77;10.95;;;15.70;90.50;;;;;;5072969;28;20111;-50
2022/05/10 12:38:43;;;;;;;21.52;10.13;;;15.60;90.70;;;;;;5073498;28;20017;-42
2022/05/10 12:41:27;;;;;;;18.75;10.63;;;15.60;90.70;;;;;;5073658;28;20060;-52
2022/05/10 12:44:08;;;;;;;20.45;11.90;;;15.60;90.90;;;;;;5085190;28;20504;-49
2022/05/10 12:47:05;;;;;;;21.63;10.57;;;15.60;90.50;;;;;;5093811;28;20043;-61
2022/05/10 12:49:42;;;;;;;17.85;9.68;;;15.60;90.80;;;;;;5093801;28;20032;-47
2022/05/10 12:52:49;;;;;;;18.38;10.10;;;15.60;90.60;;;;;;5093932;28;20024;-55
2022/05/10 12:55:27;;;;;;;20.30;10.02;;;15.60;90.60;;;;;;5066900;28;20128;-58
2022/05/10 12:58:21;;;;;;;17.90;10.15;;;15.60;90.70;;;;;;5073150;28;20190;-55
2022/05/10 13:00:55;;;;;;;23.73;10.25;;;15.70;90.50;;;;;;5072459;28;20400;-51
2022/05/10 13:03:34;;;;;;;23.85;11.45;;;15.70;90.70;;;;;;5072072;28;20025;-39
2022/05/10 13:06:47;;;;;;;22.08;10.45;;;15.70;90.80;;;;;;5072063;28;20031;-45
2022/05/10 13:09:37;;;;;;;19.17;9.98;;;15.90;90.50;;;;;;5072503;28;20060;-41
2022/05/10 13:12:50;;;;;;;20.45;11.35;;;15.90;90.00;;;;;;5073074;28;20025;-54
2022/05/10 13:15:19;;;;;;;21.80;11.80;;;15.90;90.50;;;;;;5064061;28;20041;-50
2022/05/10 13:17:54;;;;;;;21.48;9.73;;;16.00;90.00;;;;;;5073093;28;20035;-54
2022/05/10 13:20:27;;;;;;;21.08;10.15;;;16.10;89.70;;;;;;5080520;28;20027;-52
2022/05/10 13:22:55;;;;;;;17.27;10.27;;;16.10;88.90;;;;;;5092172;28;20032;-47
2022/05/10 13:25:36;;;;;;;28.20;12.13;;;16.10;89.10;;;;;;5092984;28;20020;-56
2022/05/10 13:28:24;;;;;;;22.77;11.02;;;16.00;90.00;;;;;;5092830;28;20062;-53